DSM weather

Des Moines International Airport
Des Moines, Iowa, United States

Public forecast

Using degrees Fahrenheit for public forecast. Weather courtesy of forecast.io.

Current aviation weather report (METAR) for Des Moines International Airport

Retrieved 2019/12/11 01:54 UTC (45 minutes ago):

KDSM 110154Z 25004KT 10SM CLR M11/M15 A3034 RMK AO2 SLP292 T11061150

Aviation forecast (TAF) for Des Moines International Airport

Retrieved 2019-12-11 00:42 UTC (2 hours ago):

TAF KDSM 102340Z 1100/1124 30006KT P6SM SKC FM110230 26005KT P6SM OVC090 FM110600 20005KT 6SM -SN OVC040 FM111200 33004KT P6SM BKN030 FM111500 02007KT P6SM FEW150 FM112000 08007KT P6SM FEW250